createdAt,value
2019-02-12T00:00:55.516Z,36.90
2019-02-12T00:04:02.465Z,36.90
2019-02-12T00:07:08.208Z,36.90
2019-02-12T00:10:13.853Z,36.90
2019-02-12T00:13:19.616Z,36.90
2019-02-12T00:21:08.753Z,36.90
2019-02-12T00:24:08.212Z,36.90
2019-02-12T00:27:14.080Z,36.90
2019-02-12T00:30:19.939Z,36.90
2019-02-12T00:33:25.688Z,36.90
2019-02-12T00:36:31.457Z,36.80
2019-02-12T00:39:38.257Z,36.80
2019-02-12T00:42:43.976Z,36.60
2019-02-12T00:45:49.740Z,36.60
2019-02-12T00:48:55.592Z,36.60
2019-02-12T00:52:01.452Z,36.70
2019-02-12T00:55:08.261Z,36.70
2019-02-12T00:58:14.069Z,36.60
2019-02-12T01:01:19.813Z,36.50
2019-02-12T01:04:25.578Z,36.50
2019-02-12T01:07:31.748Z,36.40
2019-02-12T01:10:37.642Z,36.40
2019-02-12T01:13:43.761Z,36.30
2019-02-12T01:16:49.523Z,36.40
2019-02-12T01:19:55.377Z,36.30
2019-02-12T01:23:01.136Z,36.20
2019-02-12T01:26:06.931Z,36.30
2019-02-12T01:29:12.752Z,36.50
2019-02-12T01:32:18.392Z,37.20
2019-02-12T01:35:24.192Z,35.30
2019-02-12T01:38:29.944Z,35.20
2019-02-12T01:41:35.706Z,35.40
2019-02-12T01:44:41.409Z,35.40
2019-02-12T01:47:47.176Z,35.50
2019-02-12T01:50:52.965Z,35.60
2019-02-12T01:53:58.889Z,35.70
2019-02-12T01:57:04.785Z,35.80
2019-02-12T02:00:13.160Z,35.80
2019-02-12T02:03:18.926Z,35.80
2019-02-12T02:06:24.617Z,35.90
2019-02-12T02:09:30.433Z,35.80
2019-02-12T02:12:36.321Z,35.90
2019-02-12T02:15:42.286Z,35.70
2019-02-12T02:18:48.104Z,35.50
2019-02-12T02:21:54.003Z,35.40
2019-02-12T02:24:59.947Z,35.40
2019-02-12T02:28:05.921Z,35.50
2019-02-12T02:31:11.781Z,35.40
2019-02-12T02:34:17.629Z,35.50
2019-02-12T02:37:23.592Z,35.40
2019-02-12T02:40:29.405Z,35.30
2019-02-12T02:43:35.224Z,35.40
2019-02-12T02:46:41.173Z,35.20
2019-02-12T02:49:47.497Z,35.30
2019-02-12T02:52:53.392Z,35.30
2019-02-12T02:55:59.211Z,35.20
2019-02-12T02:59:04.972Z,35.30
2019-02-12T03:02:10.674Z,35.20
2019-02-12T03:05:16.469Z,35.30
2019-02-12T03:08:22.300Z,35.10
2019-02-12T03:11:28.116Z,35.10
2019-02-12T03:14:33.940Z,35.10
2019-02-12T03:17:39.830Z,35.10
2019-02-12T03:20:45.900Z,35.00
2019-02-12T03:23:51.934Z,35.10
2019-02-12T03:26:57.837Z,35.20
2019-02-12T03:30:03.759Z,35.10
2019-02-12T03:33:09.712Z,35.10
2019-02-12T03:36:15.457Z,35.20
2019-02-12T03:39:21.110Z,35.30
2019-02-12T03:42:27.009Z,35.10
2019-02-12T03:45:32.720Z,35.00
2019-02-12T03:48:38.595Z,35.00
2019-02-12T03:51:44.343Z,34.70
2019-02-12T03:54:50.510Z,34.80
2019-02-12T03:57:56.367Z,34.80
2019-02-12T04:01:02.224Z,34.90
2019-02-12T04:04:08.189Z,34.80
2019-02-12T04:07:13.988Z,34.70
2019-02-12T04:10:19.791Z,34.80
2019-02-12T04:13:25.696Z,34.70
2019-02-12T04:16:31.514Z,34.60
2019-02-12T04:19:37.261Z,34.70
2019-02-12T04:22:42.917Z,34.70
2019-02-12T04:25:48.776Z,34.60
2019-02-12T04:28:54.525Z,34.60
2019-02-12T04:32:00.388Z,34.60
2019-02-12T04:35:06.346Z,34.50
2019-02-12T04:38:12.110Z,34.70
2019-02-12T04:41:18.013Z,34.80
2019-02-12T04:44:23.821Z,34.80
2019-02-12T04:47:29.780Z,34.70
2019-02-12T04:50:35.735Z,34.80
2019-02-12T04:53:41.602Z,34.90
2019-02-12T04:56:47.396Z,34.90
2019-02-12T04:59:53.313Z,34.80
2019-02-12T05:02:58.952Z,35.00
2019-02-12T05:06:04.723Z,34.90
2019-02-12T05:09:18.957Z,35.00
2019-02-12T05:12:25.999Z,34.80
2019-02-12T05:15:31.808Z,34.80
2019-02-12T05:18:37.617Z,34.70
2019-02-12T05:21:43.529Z,34.60
2019-02-12T05:24:49.322Z,34.50
2019-02-12T05:27:55.299Z,34.30
2019-02-12T05:31:01.249Z,34.20
2019-02-12T05:34:07.064Z,34.10
2019-02-12T05:37:13.126Z,34.10
2019-02-12T05:40:18.876Z,34.00
2019-02-12T05:43:24.678Z,34.00
2019-02-12T05:46:31.712Z,33.90
2019-02-12T05:49:37.409Z,33.90
2019-02-12T05:52:53.302Z,33.70
2019-02-12T05:55:50.732Z,34.50
2019-02-12T05:58:56.629Z,33.60
2019-02-12T06:02:02.443Z,33.70
2019-02-12T06:05:08.506Z,33.60
2019-02-12T06:08:18.908Z,34.20
2019-02-12T06:11:24.820Z,33.50
2019-02-12T06:14:30.738Z,33.50
2019-02-12T06:17:36.534Z,33.60
2019-02-12T06:20:43.427Z,33.60
2019-02-12T06:23:49.213Z,33.50
2019-02-12T06:26:55.140Z,33.60
2019-02-12T06:30:01.136Z,33.60
2019-02-12T06:33:07.780Z,33.50
2019-02-12T06:36:13.737Z,33.60
2019-02-12T06:39:19.533Z,33.50
2019-02-12T06:42:25.344Z,33.40
2019-02-12T06:45:31.248Z,33.50
2019-02-12T06:48:37.204Z,33.50
2019-02-12T06:51:43.020Z,33.60
2019-02-12T06:54:49.009Z,33.80
2019-02-12T06:57:54.944Z,33.60
2019-02-12T07:01:00.912Z,33.60
2019-02-12T07:04:16.436Z,33.50
2019-02-12T07:08:03.673Z,33.60
2019-02-12T07:11:28.261Z,33.80
2019-02-12T07:14:55.218Z,33.60
2019-02-12T07:18:54.553Z,33.80
2019-02-12T07:22:33.717Z,33.60
2019-02-12T07:26:05.788Z,33.50
2019-02-12T07:29:49.436Z,33.70
2019-02-12T07:33:27.445Z,33.70
2019-02-12T07:36:55.553Z,33.80
2019-02-12T07:40:33.228Z,33.80
2019-02-12T07:44:21.789Z,33.90
2019-02-12T07:48:08.096Z,33.80
2019-02-12T07:51:32.716Z,33.90
2019-02-12T07:55:03.841Z,33.90
2019-02-12T07:58:48.714Z,34.00
2019-02-12T08:02:26.214Z,33.90
2019-02-12T08:06:00.593Z,34.00
2019-02-12T08:10:01.488Z,33.90
2019-02-12T08:13:42.773Z,34.00
2019-02-12T08:17:25.840Z,33.90
2019-02-12T08:21:12.416Z,33.90
2019-02-12T08:24:54.529Z,34.00
2019-02-12T08:28:43.911Z,33.90
2019-02-12T08:32:26.864Z,34.60
2019-02-12T08:36:12.516Z,32.70
2019-02-12T08:39:55.514Z,33.00
2019-02-12T08:43:25.164Z,33.00
2019-02-12T08:47:14.850Z,32.60
2019-02-12T08:51:04.242Z,33.50
2019-02-12T08:54:56.476Z,33.60
2019-02-12T08:58:24.692Z,35.10
2019-02-12T09:02:26.167Z,36.70
2019-02-12T09:06:04.099Z,37.40
2019-02-12T09:09:44.289Z,40.10
2019-02-12T09:13:36.077Z,38.40
2019-02-12T09:17:06.148Z,37.20
2019-02-12T09:21:08.580Z,37.90
2019-02-12T09:24:40.594Z,38.90
2019-02-12T09:28:27.153Z,40.90
2019-02-12T09:31:58.809Z,41.50
2019-02-12T09:35:19.480Z,42.40
2019-02-12T09:38:59.646Z,42.70
2019-02-12T09:42:36.937Z,44.40
2019-02-12T09:46:37.580Z,44.80
2019-02-12T09:50:13.488Z,41.60
2019-02-12T09:53:46.369Z,41.20
2019-02-12T09:57:06.424Z,41.20
2019-02-12T10:00:48.260Z,37.60
2019-02-12T10:04:19.829Z,40.00
2019-02-12T10:07:56.565Z,42.30
2019-02-12T10:11:17.377Z,48.20
2019-02-12T10:14:34.945Z,48.20
2019-02-12T10:18:13.019Z,47.00
2019-02-12T10:21:43.761Z,46.40
2019-02-12T10:24:56.816Z,40.30
2019-02-12T10:28:48.673Z,41.60
2019-02-12T10:31:47.719Z,45.40
2019-02-12T10:34:53.504Z,39.80
2019-02-12T10:37:59.537Z,40.30
2019-02-12T10:41:05.602Z,40.50
2019-02-12T10:44:11.387Z,40.80
2019-02-12T10:47:17.313Z,41.20
2019-02-12T10:50:23.212Z,42.00
2019-02-12T10:53:29.660Z,41.40
2019-02-12T10:56:46.472Z,41.60
2019-02-12T10:59:52.353Z,41.30
2019-02-12T11:02:58.272Z,41.30
2019-02-12T11:06:03.964Z,41.00
2019-02-12T11:09:11.344Z,40.60
2019-02-12T11:12:17.180Z,40.20
2019-02-12T11:15:22.870Z,39.90
2019-02-12T11:18:28.792Z,40.00
2019-02-12T11:21:34.553Z,39.80
2019-02-12T11:24:40.237Z,39.60
2019-02-12T11:27:46.052Z,39.60
2019-02-12T11:30:51.864Z,39.80
2019-02-12T11:33:57.772Z,39.90
2019-02-12T11:37:03.464Z,40.40
2019-02-12T11:40:09.685Z,40.60
2019-02-12T11:43:15.388Z,40.80
2019-02-12T11:46:21.088Z,41.20
2019-02-12T11:49:26.893Z,40.50
2019-02-12T11:52:32.728Z,40.50
2019-02-12T11:55:38.612Z,40.30
2019-02-12T11:58:44.428Z,40.00
2019-02-12T12:01:50.284Z,40.10
2019-02-12T12:04:55.941Z,40.00
2019-02-12T12:08:01.688Z,39.50
2019-02-12T12:11:07.644Z,39.60
2019-02-12T12:14:13.404Z,39.40
2019-02-12T12:17:19.172Z,39.00
2019-02-12T12:20:24.922Z,39.10
2019-02-12T12:23:30.681Z,38.70
2019-02-12T12:26:36.434Z,38.70
2019-02-12T12:29:42.117Z,38.70
2019-02-12T12:32:48.044Z,38.70
2019-02-12T12:35:53.688Z,39.10
2019-02-12T12:38:59.448Z,38.90
2019-02-12T12:42:05.105Z,39.50
2019-02-12T12:45:11.415Z,39.80
2019-02-12T12:48:49.821Z,39.70
2019-02-12T12:51:55.538Z,39.70
2019-02-12T12:55:01.445Z,39.70
2019-02-12T12:58:07.261Z,39.40
2019-02-12T13:01:12.917Z,39.40
2019-02-12T13:04:18.668Z,39.10
2019-02-12T13:07:36.368Z,39.00
2019-02-12T13:10:42.165Z,38.90
2019-02-12T13:13:48.012Z,38.70
2019-02-12T13:16:53.671Z,38.60
2019-02-12T13:19:59.426Z,38.50
2019-02-12T13:23:05.184Z,38.30
2019-02-12T13:26:10.936Z,38.20
2019-02-12T13:29:16.693Z,38.20
2019-02-12T13:32:22.451Z,38.00
2019-02-12T13:35:28.344Z,38.10
2019-02-12T13:38:34.165Z,38.00
2019-02-12T13:41:39.908Z,37.90
2019-02-12T13:44:45.561Z,37.80
2019-02-12T13:47:51.396Z,37.60
2019-02-12T13:50:57.388Z,37.60
2019-02-12T13:54:04.816Z,37.50
2019-02-12T13:57:10.812Z,37.40
2019-02-12T14:00:16.561Z,37.30
2019-02-12T14:03:22.906Z,37.20
2019-02-12T14:06:29.669Z,37.10
2019-02-12T14:09:35.365Z,37.10
2019-02-12T14:12:41.120Z,37.00
2019-02-12T14:15:46.768Z,36.90
2019-02-12T14:18:53.657Z,36.80
2019-02-12T14:21:59.458Z,36.80
2019-02-12T14:25:05.884Z,36.70
2019-02-12T14:28:11.945Z,36.50
2019-02-12T14:31:19.660Z,36.50
2019-02-12T14:34:31.176Z,36.40
2019-02-12T14:37:36.994Z,36.30
2019-02-12T14:40:42.749Z,36.20
2019-02-12T14:43:48.552Z,36.10
2019-02-12T14:46:54.465Z,36.00
2019-02-12T14:50:00.264Z,36.00
2019-02-12T14:53:06.072Z,35.90
2019-02-12T14:56:11.835Z,35.80
2019-02-12T14:59:17.792Z,35.70
2019-02-12T15:02:23.585Z,35.50
2019-02-12T15:05:29.510Z,35.50
2019-02-12T15:08:35.361Z,35.40
2019-02-12T15:11:41.157Z,35.30
2019-02-12T15:14:47.080Z,35.30
2019-02-12T15:17:53.080Z,35.20
2019-02-12T15:20:59.912Z,35.20
2019-02-12T15:24:05.784Z,35.20
2019-02-12T15:27:11.768Z,35.00
2019-02-12T15:30:17.698Z,35.00
2019-02-12T15:33:23.600Z,34.90
2019-02-12T15:36:29.405Z,34.60
2019-02-12T15:39:35.309Z,34.60
2019-02-12T15:42:41.166Z,34.80
2019-02-12T15:45:47.087Z,35.10
2019-02-12T15:48:52.989Z,35.10
2019-02-12T15:51:58.956Z,35.00
2019-02-12T15:55:04.969Z,35.20
2019-02-12T15:58:10.976Z,35.10
2019-02-12T16:01:16.991Z,35.10
2019-02-12T16:04:25.769Z,35.30
2019-02-12T16:07:30.076Z,35.10
2019-02-12T16:10:37.596Z,35.00
2019-02-12T16:13:44.756Z,35.10
2019-02-12T16:16:53.618Z,35.10
2019-02-12T16:20:00.905Z,35.10
2019-02-12T16:23:15.340Z,35.20
2019-02-12T16:26:21.361Z,35.70
2019-02-12T16:29:27.572Z,35.90
2019-02-12T16:32:33.416Z,36.90
2019-02-12T16:35:39.348Z,37.40
2019-02-12T16:38:45.096Z,37.00
2019-02-12T16:41:50.850Z,36.50
2019-02-12T16:44:56.852Z,36.00
2019-02-12T16:48:02.672Z,35.60
2019-02-12T16:51:08.421Z,35.30
2019-02-12T16:54:14.200Z,35.00
2019-02-12T16:57:19.928Z,34.80
2019-02-12T17:00:25.796Z,34.60
2019-02-12T17:03:31.723Z,34.20
2019-02-12T17:06:37.612Z,33.40
2019-02-12T17:09:51.865Z,33.80
2019-02-12T17:12:50.860Z,33.80
2019-02-12T17:15:56.715Z,33.40
2019-02-12T17:19:02.584Z,33.50
2019-02-12T17:22:08.437Z,33.40
2019-02-12T17:25:14.603Z,33.40
2019-02-12T17:28:20.397Z,33.80
2019-02-12T17:31:27.245Z,34.10
2019-02-12T17:34:33.096Z,34.20
2019-02-12T17:37:39.208Z,33.90
2019-02-12T17:40:45.120Z,34.60
2019-02-12T17:43:51.125Z,34.60
2019-02-12T17:46:56.824Z,34.60
2019-02-12T17:50:02.793Z,34.90
2019-02-12T17:53:08.648Z,34.80
2019-02-12T17:56:14.512Z,34.60
2019-02-12T17:59:20.304Z,34.80
2019-02-12T18:02:26.032Z,34.60
2019-02-12T18:05:32.905Z,34.60
2019-02-12T18:08:38.752Z,34.20
2019-02-12T18:11:44.403Z,34.50
2019-02-12T18:14:50.368Z,34.00
2019-02-12T18:17:56.016Z,34.00
2019-02-12T18:21:01.777Z,33.80
2019-02-12T18:24:07.676Z,33.60
2019-02-12T18:27:13.599Z,33.60
2019-02-12T18:30:19.448Z,33.50
2019-02-12T18:33:25.207Z,33.40
2019-02-12T18:36:31.069Z,33.20
2019-02-12T18:39:37.883Z,33.20
2019-02-12T18:42:43.696Z,33.20
2019-02-12T18:45:49.457Z,33.80
2019-02-12T18:48:55.248Z,33.50
2019-02-12T18:52:01.078Z,33.10
2019-02-12T18:55:07.273Z,33.20
2019-02-12T18:58:13.080Z,32.90
2019-02-12T19:01:18.840Z,33.00
2019-02-12T19:04:25.048Z,32.80
2019-02-12T19:07:30.961Z,32.90
2019-02-12T19:10:36.660Z,33.30
2019-02-12T19:13:42.476Z,33.60
2019-02-12T19:16:48.345Z,33.60
2019-02-12T19:19:54.064Z,33.60
2019-02-12T19:22:59.849Z,33.60
2019-02-12T19:26:05.646Z,33.30
2019-02-12T19:29:11.565Z,33.30
2019-02-12T19:32:17.320Z,33.20
2019-02-12T19:35:23.005Z,33.10
2019-02-12T19:38:28.932Z,33.10
2019-02-12T19:41:34.722Z,33.20
2019-02-12T19:44:41.521Z,33.00
2019-02-12T19:47:47.425Z,32.90
2019-02-12T19:50:53.232Z,32.80
2019-02-12T19:53:59.196Z,32.70
2019-02-12T19:57:05.108Z,32.60
2019-02-12T20:00:14.414Z,33.30
2019-02-12T20:03:20.400Z,32.60
2019-02-12T20:06:26.196Z,32.70
2019-02-12T20:09:32.126Z,32.60
2019-02-12T20:12:38.076Z,32.70
2019-02-12T20:15:43.973Z,32.60
2019-02-12T20:18:49.890Z,33.00
2019-02-12T20:21:55.896Z,34.40
2019-02-12T20:25:01.744Z,34.00
2019-02-12T20:28:07.568Z,33.40
2019-02-12T20:31:13.576Z,33.30
2019-02-12T20:34:19.538Z,32.70
2019-02-12T20:37:25.488Z,33.30
2019-02-12T20:40:31.410Z,34.50
2019-02-12T20:43:37.268Z,34.70
2019-02-12T20:46:43.080Z,35.10
2019-02-12T20:49:49.084Z,35.00
2019-02-12T20:52:54.880Z,34.70
2019-02-12T20:56:00.951Z,34.20
2019-02-12T20:59:06.863Z,33.90
2019-02-12T21:02:12.719Z,33.40
2019-02-12T21:05:18.788Z,32.90
2019-02-12T21:08:26.062Z,32.70
2019-02-12T21:11:31.924Z,32.50
2019-02-12T21:14:38.285Z,32.40
2019-02-12T21:17:45.691Z,32.50
2019-02-12T21:20:51.349Z,32.50
2019-02-12T21:23:57.096Z,32.80
2019-02-12T21:27:03.060Z,32.20
2019-02-12T21:30:11.476Z,32.00
2019-02-12T21:33:18.644Z,32.50
2019-02-12T21:36:24.520Z,32.70
2019-02-12T21:39:47.401Z,32.40
2019-02-12T21:42:53.348Z,33.20
2019-02-12T21:46:13.573Z,33.80
2019-02-12T21:49:19.608Z,34.20
2019-02-12T21:52:25.664Z,34.90
2019-02-12T21:55:31.413Z,35.90
2019-02-12T21:58:37.282Z,35.20
2019-02-12T22:01:44.129Z,35.10
2019-02-12T22:04:50.104Z,35.00
2019-02-12T22:07:55.868Z,34.70
2019-02-12T22:11:01.724Z,35.00
2019-02-12T22:14:07.580Z,35.90
2019-02-12T22:17:14.413Z,36.70
2019-02-12T22:20:20.431Z,39.00
2019-02-12T22:23:26.180Z,41.30
2019-02-12T22:26:32.076Z,42.60
2019-02-12T22:29:37.949Z,44.40
2019-02-12T22:32:43.697Z,46.00
2019-02-12T22:35:49.612Z,47.80
2019-02-12T22:38:55.364Z,46.90
2019-02-12T22:42:01.053Z,47.30
2019-02-12T22:45:08.720Z,48.10
2019-02-12T22:48:14.513Z,49.70
2019-02-12T22:51:20.320Z,51.50
2019-02-12T22:54:26.289Z,52.80
2019-02-12T22:57:32.088Z,53.40
2019-02-12T23:00:55.512Z,54.60
2019-02-12T23:04:02.401Z,55.20
2019-02-12T23:07:08.296Z,56.30
2019-02-12T23:10:14.216Z,56.70
2019-02-12T23:13:20.040Z,57.40
2019-02-12T23:16:25.829Z,58.20
2019-02-12T23:19:31.584Z,58.80
2019-02-12T23:22:39.141Z,59.00
2019-02-12T23:25:44.623Z,59.40
2019-02-12T23:28:50.420Z,59.60
2019-02-12T23:31:56.276Z,59.40
2019-02-12T23:35:01.997Z,59.80
2019-02-12T23:38:07.892Z,59.50
2019-02-12T23:41:13.712Z,59.40
2019-02-12T23:44:19.512Z,59.30
2019-02-12T23:47:25.464Z,59.20
2019-02-12T23:50:31.285Z,59.30
2019-02-12T23:53:37.076Z,59.40
2019-02-12T23:56:43.001Z,59.20
2019-02-12T23:59:48.864Z,59.10
